sensor_id;sensor_type;location;lat;lon;timestamp;P1;durP1;ratioP1;P2;durP2;ratioP2
62947;SDS011;51940;52.126;-0.994;2023-02-22T00:01:09;50.80;;;27.70;;
62947;SDS011;51940;52.126;-0.994;2023-02-22T00:03:49;52.20;;;27.50;;
62947;SDS011;51940;52.126;-0.994;2023-02-22T00:06:17;53.80;;;28.80;;
62947;SDS011;51940;52.126;-0.994;2023-02-22T00:08:45;53.30;;;28.80;;
62947;SDS011;51940;52.126;-0.994;2023-02-22T00:11:13;52.50;;;27.80;;
62947;SDS011;51940;52.126;-0.994;2023-02-22T00:13:39;52.50;;;28.00;;
62947;SDS011;51940;52.126;-0.994;2023-02-22T00:16:08;51.30;;;28.80;;
62947;SDS011;51940;52.126;-0.994;2023-02-22T00:18:37;52.50;;;28.60;;
62947;SDS011;51940;52.126;-0.994;2023-02-22T00:21:02;49.90;;;27.50;;
62947;SDS011;51940;52.126;-0.994;2023-02-22T00:23:29;53.80;;;29.50;;
62947;SDS011;51940;52.126;-0.994;2023-02-22T00:25:56;51.40;;;28.30;;
62947;SDS011;51940;52.126;-0.994;2023-02-22T00:28:23;50.10;;;27.40;;
62947;SDS011;51940;52.126;-0.994;2023-02-22T00:30:49;53.20;;;28.40;;
62947;SDS011;51940;52.126;-0.994;2023-02-22T00:33:16;53.10;;;29.70;;
62947;SDS011;51940;52.126;-0.994;2023-02-22T00:35:42;53.60;;;28.90;;
62947;SDS011;51940;52.126;-0.994;2023-02-22T00:38:12;54.50;;;29.00;;
62947;SDS011;51940;52.126;-0.994;2023-02-22T00:40:39;49.90;;;27.50;;
62947;SDS011;51940;52.126;-0.994;2023-02-22T00:43:05;51.70;;;28.60;;
62947;SDS011;51940;52.126;-0.994;2023-02-22T00:45:31;52.40;;;28.00;;
62947;SDS011;51940;52.126;-0.994;2023-02-22T00:47:58;53.80;;;28.00;;
62947;SDS011;51940;52.126;-0.994;2023-02-22T00:50:25;50.60;;;28.80;;
62947;SDS011;51940;52.126;-0.994;2023-02-22T00:52:53;48.20;;;27.20;;
62947;SDS011;51940;52.126;-0.994;2023-02-22T00:55:24;48.50;;;26.40;;
62947;SDS011;51940;52.126;-0.994;2023-02-22T00:57:53;52.10;;;27.50;;
62947;SDS011;51940;52.126;-0.994;2023-02-22T01:00:23;51.30;;;28.00;;
62947;SDS011;51940;52.126;-0.994;2023-02-22T01:02:57;49.60;;;26.40;;
62947;SDS011;51940;52.126;-0.994;2023-02-22T01:05:24;49.30;;;27.00;;
62947;SDS011;51940;52.126;-0.994;2023-02-22T01:07:51;46.60;;;26.20;;
62947;SDS011;51940;52.126;-0.994;2023-02-22T01:10:19;46.80;;;25.60;;
62947;SDS011;51940;52.126;-0.994;2023-02-22T01:12:46;47.10;;;25.70;;
62947;SDS011;51940;52.126;-0.994;2023-02-22T01:15:12;44.50;;;25.30;;
62947;SDS011;51940;52.126;-0.994;2023-02-22T01:17:39;47.50;;;24.90;;
62947;SDS011;51940;52.126;-0.994;2023-02-22T01:20:06;47.30;;;25.50;;
62947;SDS011;51940;52.126;-0.994;2023-02-22T01:22:39;45.60;;;25.40;;
62947;SDS011;51940;52.126;-0.994;2023-02-22T01:25:07;44.00;;;24.80;;
62947;SDS011;51940;52.126;-0.994;2023-02-22T01:27:34;46.80;;;25.50;;
62947;SDS011;51940;52.126;-0.994;2023-02-22T01:30:01;45.00;;;25.30;;
62947;SDS011;51940;52.126;-0.994;2023-02-22T01:32:33;47.10;;;26.20;;
62947;SDS011;51940;52.126;-0.994;2023-02-22T01:35:03;46.60;;;25.40;;
62947;SDS011;51940;52.126;-0.994;2023-02-22T01:37:32;45.50;;;25.40;;
62947;SDS011;51940;52.126;-0.994;2023-02-22T01:39:58;47.60;;;26.00;;
62947;SDS011;51940;52.126;-0.994;2023-02-22T01:42:24;45.90;;;25.30;;
62947;SDS011;51940;52.126;-0.994;2023-02-22T01:48:11;48.40;;;25.80;;
62947;SDS011;51940;52.126;-0.994;2023-02-22T01:50:46;48.00;;;26.50;;
62947;SDS011;51940;52.126;-0.994;2023-02-22T01:53:18;46.90;;;27.10;;
62947;SDS011;51940;52.126;-0.994;2023-02-22T01:55:46;46.90;;;25.80;;
62947;SDS011;51940;52.126;-0.994;2023-02-22T01:58:12;46.80;;;25.40;;
62947;SDS011;51940;52.126;-0.994;2023-02-22T02:00:40;46.80;;;26.50;;
62947;SDS011;51940;52.126;-0.994;2023-02-22T02:03:19;46.60;;;26.80;;
62947;SDS011;51940;52.126;-0.994;2023-02-22T02:05:51;46.10;;;25.00;;
62947;SDS011;51940;52.126;-0.994;2023-02-22T02:13:43;42.20;;;24.20;;
62947;SDS011;51940;52.126;-0.994;2023-02-22T02:16:08;47.70;;;26.00;;
62947;SDS011;51940;52.126;-0.994;2023-02-22T02:18:34;44.50;;;24.40;;
62947;SDS011;51940;52.126;-0.994;2023-02-22T02:26:40;44.60;;;24.70;;
62947;SDS011;51940;52.126;-0.994;2023-02-22T02:37:34;47.80;;;25.90;;
62947;SDS011;51940;52.126;-0.994;2023-02-22T02:40:19;42.40;;;24.30;;
62947;SDS011;51940;52.126;-0.994;2023-02-22T02:42:52;45.20;;;25.10;;
62947;SDS011;51940;52.126;-0.994;2023-02-22T02:45:29;44.30;;;24.20;;
62947;SDS011;51940;52.126;-0.994;2023-02-22T02:48:01;42.50;;;24.40;;
62947;SDS011;51940;52.126;-0.994;2023-02-22T02:50:32;41.10;;;23.40;;
62947;SDS011;51940;52.126;-0.994;2023-02-22T02:53:06;39.90;;;21.90;;
62947;SDS011;51940;52.126;-0.994;2023-02-22T02:55:33;41.00;;;22.10;;
62947;SDS011;51940;52.126;-0.994;2023-02-22T02:58:02;40.10;;;22.00;;
62947;SDS011;51940;52.126;-0.994;2023-02-22T03:00:30;34.90;;;19.90;;
62947;SDS011;51940;52.126;-0.994;2023-02-22T03:08:46;39.30;;;20.70;;
62947;SDS011;51940;52.126;-0.994;2023-02-22T03:16:33;34.00;;;19.30;;
62947;SDS011;51940;52.126;-0.994;2023-02-22T03:19:21;39.00;;;20.20;;
62947;SDS011;51940;52.126;-0.994;2023-02-22T03:30:25;36.50;;;19.10;;
62947;SDS011;51940;52.126;-0.994;2023-02-22T03:32:57;32.80;;;18.00;;
62947;SDS011;51940;52.126;-0.994;2023-02-22T03:35:33;33.10;;;18.10;;
62947;SDS011;51940;52.126;-0.994;2023-02-22T03:38:04;32.20;;;18.20;;
62947;SDS011;51940;52.126;-0.994;2023-02-22T03:40:34;34.70;;;17.90;;
62947;SDS011;51940;52.126;-0.994;2023-02-22T03:43:07;32.20;;;18.10;;
62947;SDS011;51940;52.126;-0.994;2023-02-22T03:45:39;29.90;;;16.50;;
62947;SDS011;51940;52.126;-0.994;2023-02-22T03:48:13;31.90;;;17.40;;
62947;SDS011;51940;52.126;-0.994;2023-02-22T03:50:40;30.90;;;16.80;;
62947;SDS011;51940;52.126;-0.994;2023-02-22T03:53:06;28.70;;;16.10;;
62947;SDS011;51940;52.126;-0.994;2023-02-22T03:55:32;32.20;;;16.80;;
62947;SDS011;51940;52.126;-0.994;2023-02-22T03:57:59;28.30;;;15.90;;
62947;SDS011;51940;52.126;-0.994;2023-02-22T04:00:30;30.00;;;16.30;;
62947;SDS011;51940;52.126;-0.994;2023-02-22T04:02:57;32.50;;;16.90;;
62947;SDS011;51940;52.126;-0.994;2023-02-22T04:05:24;30.50;;;16.60;;
62947;SDS011;51940;52.126;-0.994;2023-02-22T04:07:53;31.10;;;16.40;;
62947;SDS011;51940;52.126;-0.994;2023-02-22T04:10:20;27.90;;;15.20;;
62947;SDS011;51940;52.126;-0.994;2023-02-22T04:12:47;29.50;;;15.60;;
62947;SDS011;51940;52.126;-0.994;2023-02-22T04:15:14;30.00;;;16.40;;
62947;SDS011;51940;52.126;-0.994;2023-02-22T04:17:41;28.40;;;14.70;;
62947;SDS011;51940;52.126;-0.994;2023-02-22T04:20:07;27.90;;;14.60;;
62947;SDS011;51940;52.126;-0.994;2023-02-22T04:22:34;27.30;;;15.20;;
62947;SDS011;51940;52.126;-0.994;2023-02-22T04:24:59;26.10;;;14.10;;
62947;SDS011;51940;52.126;-0.994;2023-02-22T04:27:25;26.70;;;14.80;;
62947;SDS011;51940;52.126;-0.994;2023-02-22T04:29:50;28.90;;;14.10;;
62947;SDS011;51940;52.126;-0.994;2023-02-22T04:32:16;27.40;;;14.40;;
62947;SDS011;51940;52.126;-0.994;2023-02-22T04:34:41;25.40;;;13.70;;
62947;SDS011;51940;52.126;-0.994;2023-02-22T04:37:07;25.20;;;14.60;;
62947;SDS011;51940;52.126;-0.994;2023-02-22T04:39:34;26.50;;;14.00;;
62947;SDS011;51940;52.126;-0.994;2023-02-22T04:41:59;25.80;;;14.20;;
62947;SDS011;51940;52.126;-0.994;2023-02-22T04:44:25;28.10;;;15.10;;
62947;SDS011;51940;52.126;-0.994;2023-02-22T04:46:50;25.80;;;13.50;;
62947;SDS011;51940;52.126;-0.994;2023-02-22T04:49:16;25.40;;;13.80;;
62947;SDS011;51940;52.126;-0.994;2023-02-22T04:51:42;26.50;;;14.20;;
62947;SDS011;51940;52.126;-0.994;2023-02-22T04:54:07;27.60;;;13.90;;
62947;SDS011;51940;52.126;-0.994;2023-02-22T04:56:33;23.80;;;13.10;;
62947;SDS011;51940;52.126;-0.994;2023-02-22T04:58:59;23.90;;;12.80;;
62947;SDS011;51940;52.126;-0.994;2023-02-22T05:01:24;23.60;;;13.50;;
62947;SDS011;51940;52.126;-0.994;2023-02-22T05:03:50;26.30;;;13.90;;
62947;SDS011;51940;52.126;-0.994;2023-02-22T05:06:16;22.70;;;13.20;;
62947;SDS011;51940;52.126;-0.994;2023-02-22T05:08:42;25.50;;;13.30;;
62947;SDS011;51940;52.126;-0.994;2023-02-22T05:11:07;24.70;;;13.30;;
62947;SDS011;51940;52.126;-0.994;2023-02-22T05:13:33;21.90;;;12.90;;
62947;SDS011;51940;52.126;-0.994;2023-02-22T05:16:00;22.30;;;13.00;;
62947;SDS011;51940;52.126;-0.994;2023-02-22T05:18:26;23.30;;;13.00;;
62947;SDS011;51940;52.126;-0.994;2023-02-22T05:20:51;26.20;;;14.10;;
62947;SDS011;51940;52.126;-0.994;2023-02-22T05:23:17;25.00;;;13.40;;
62947;SDS011;51940;52.126;-0.994;2023-02-22T05:25:42;25.10;;;14.00;;
62947;SDS011;51940;52.126;-0.994;2023-02-22T05:28:11;22.90;;;13.60;;
62947;SDS011;51940;52.126;-0.994;2023-02-22T05:30:38;24.50;;;13.40;;
62947;SDS011;51940;52.126;-0.994;2023-02-22T05:33:04;23.40;;;13.50;;
62947;SDS011;51940;52.126;-0.994;2023-02-22T05:35:30;24.30;;;13.40;;
62947;SDS011;51940;52.126;-0.994;2023-02-22T05:37:56;25.30;;;13.90;;
62947;SDS011;51940;52.126;-0.994;2023-02-22T05:40:25;25.90;;;13.70;;
62947;SDS011;51940;52.126;-0.994;2023-02-22T05:42:52;24.00;;;14.50;;
62947;SDS011;51940;52.126;-0.994;2023-02-22T05:45:19;23.90;;;13.20;;
62947;SDS011;51940;52.126;-0.994;2023-02-22T05:47:50;22.50;;;13.10;;
62947;SDS011;51940;52.126;-0.994;2023-02-22T05:50:16;21.80;;;12.90;;
62947;SDS011;51940;52.126;-0.994;2023-02-22T05:52:43;23.90;;;12.70;;
62947;SDS011;51940;52.126;-0.994;2023-02-22T05:55:10;21.90;;;12.40;;
62947;SDS011;51940;52.126;-0.994;2023-02-22T05:57:37;20.90;;;11.90;;
62947;SDS011;51940;52.126;-0.994;2023-02-22T06:00:04;21.10;;;12.10;;
62947;SDS011;51940;52.126;-0.994;2023-02-22T06:02:31;21.30;;;12.40;;
62947;SDS011;51940;52.126;-0.994;2023-02-22T06:04:59;20.20;;;11.10;;
62947;SDS011;51940;52.126;-0.994;2023-02-22T06:07:24;21.60;;;12.90;;
62947;SDS011;51940;52.126;-0.994;2023-02-22T06:09:51;19.70;;;11.80;;
62947;SDS011;51940;52.126;-0.994;2023-02-22T06:12:17;18.80;;;11.50;;
62947;SDS011;51940;52.126;-0.994;2023-02-22T06:14:43;22.30;;;12.70;;
62947;SDS011;51940;52.126;-0.994;2023-02-22T06:17:13;20.10;;;11.10;;
62947;SDS011;51940;52.126;-0.994;2023-02-22T06:19:39;17.20;;;10.60;;
62947;SDS011;51940;52.126;-0.994;2023-02-22T06:22:05;20.70;;;11.00;;
62947;SDS011;51940;52.126;-0.994;2023-02-22T06:24:31;21.50;;;11.30;;
62947;SDS011;51940;52.126;-0.994;2023-02-22T06:26:58;17.70;;;10.40;;
62947;SDS011;51940;52.126;-0.994;2023-02-22T06:29:26;19.50;;;10.60;;
62947;SDS011;51940;52.126;-0.994;2023-02-22T06:31:53;17.40;;;10.60;;
62947;SDS011;51940;52.126;-0.994;2023-02-22T06:34:18;18.40;;;10.70;;
62947;SDS011;51940;52.126;-0.994;2023-02-22T06:36:46;20.90;;;10.80;;
62947;SDS011;51940;52.126;-0.994;2023-02-22T06:39:17;19.70;;;9.90;;
62947;SDS011;51940;52.126;-0.994;2023-02-22T06:41:43;16.20;;;9.20;;
62947;SDS011;51940;52.126;-0.994;2023-02-22T06:44:10;15.70;;;9.20;;
62947;SDS011;51940;52.126;-0.994;2023-02-22T06:46:37;17.20;;;10.00;;
62947;SDS011;51940;52.126;-0.994;2023-02-22T06:49:03;16.90;;;10.40;;
62947;SDS011;51940;52.126;-0.994;2023-02-22T06:51:29;18.70;;;10.60;;
62947;SDS011;51940;52.126;-0.994;2023-02-22T06:53:59;20.70;;;11.40;;
62947;SDS011;51940;52.126;-0.994;2023-02-22T06:56:25;20.30;;;12.10;;
62947;SDS011;51940;52.126;-0.994;2023-02-22T06:58:50;19.80;;;11.20;;
62947;SDS011;51940;52.126;-0.994;2023-02-22T07:01:15;18.60;;;10.90;;
62947;SDS011;51940;52.126;-0.994;2023-02-22T07:03:41;20.10;;;11.00;;
62947;SDS011;51940;52.126;-0.994;2023-02-22T07:06:06;21.60;;;11.40;;
62947;SDS011;51940;52.126;-0.994;2023-02-22T07:08:32;22.40;;;11.50;;
62947;SDS011;51940;52.126;-0.994;2023-02-22T07:10:58;20.80;;;10.90;;
62947;SDS011;51940;52.126;-0.994;2023-02-22T07:13:24;21.70;;;11.70;;
62947;SDS011;51940;52.126;-0.994;2023-02-22T07:15:49;20.80;;;11.20;;
62947;SDS011;51940;52.126;-0.994;2023-02-22T07:18:15;20.10;;;11.00;;
62947;SDS011;51940;52.126;-0.994;2023-02-22T07:20:40;20.90;;;11.10;;
62947;SDS011;51940;52.126;-0.994;2023-02-22T07:23:06;20.20;;;11.60;;
62947;SDS011;51940;52.126;-0.994;2023-02-22T07:25:32;20.10;;;11.30;;
62947;SDS011;51940;52.126;-0.994;2023-02-22T07:27:58;19.70;;;10.90;;
62947;SDS011;51940;52.126;-0.994;2023-02-22T07:32:59;19.30;;;10.80;;
62947;SDS011;51940;52.126;-0.994;2023-02-22T07:35:32;23.30;;;11.80;;
62947;SDS011;51940;52.126;-0.994;2023-02-22T07:38:03;20.30;;;10.90;;
62947;SDS011;51940;52.126;-0.994;2023-02-22T07:40:30;20.20;;;11.60;;
62947;SDS011;51940;52.126;-0.994;2023-02-22T07:43:03;19.50;;;11.40;;
62947;SDS011;51940;52.126;-0.994;2023-02-22T07:45:34;22.80;;;11.30;;
62947;SDS011;51940;52.126;-0.994;2023-02-22T07:48:01;19.40;;;10.90;;
62947;SDS011;51940;52.126;-0.994;2023-02-22T07:50:29;20.40;;;10.60;;
62947;SDS011;51940;52.126;-0.994;2023-02-22T07:52:57;21.10;;;11.30;;
62947;SDS011;51940;52.126;-0.994;2023-02-22T07:55:25;21.50;;;11.90;;
62947;SDS011;51940;52.126;-0.994;2023-02-22T07:57:53;21.70;;;12.50;;
62947;SDS011;51940;52.126;-0.994;2023-02-22T08:00:23;22.80;;;12.20;;
62947;SDS011;51940;52.126;-0.994;2023-02-22T08:02:54;24.70;;;12.80;;
62947;SDS011;51940;52.126;-0.994;2023-02-22T08:05:20;25.70;;;12.30;;
62947;SDS011;51940;52.126;-0.994;2023-02-22T08:07:47;22.60;;;12.90;;
62947;SDS011;51940;52.126;-0.994;2023-02-22T08:10:13;25.40;;;13.30;;
62947;SDS011;51940;52.126;-0.994;2023-02-22T08:12:41;24.50;;;13.00;;
62947;SDS011;51940;52.126;-0.994;2023-02-22T08:15:07;23.70;;;12.60;;
62947;SDS011;51940;52.126;-0.994;2023-02-22T08:17:39;25.20;;;14.10;;
62947;SDS011;51940;52.126;-0.994;2023-02-22T08:20:04;27.90;;;13.90;;
62947;SDS011;51940;52.126;-0.994;2023-02-22T08:22:30;28.10;;;14.60;;
62947;SDS011;51940;52.126;-0.994;2023-02-22T08:24:56;27.60;;;14.90;;
62947;SDS011;51940;52.126;-0.994;2023-02-22T08:27:25;25.60;;;13.80;;
62947;SDS011;51940;52.126;-0.994;2023-02-22T08:29:51;26.80;;;14.50;;
62947;SDS011;51940;52.126;-0.994;2023-02-22T08:32:17;30.20;;;15.10;;
62947;SDS011;51940;52.126;-0.994;2023-02-22T08:34:43;27.30;;;15.20;;
62947;SDS011;51940;52.126;-0.994;2023-02-22T08:37:09;29.30;;;15.30;;
62947;SDS011;51940;52.126;-0.994;2023-02-22T08:39:35;25.50;;;14.50;;
62947;SDS011;51940;52.126;-0.994;2023-02-22T08:42:00;27.70;;;14.90;;
62947;SDS011;51940;52.126;-0.994;2023-02-22T08:44:26;27.70;;;14.30;;
62947;SDS011;51940;52.126;-0.994;2023-02-22T08:46:51;29.10;;;15.70;;
62947;SDS011;51940;52.126;-0.994;2023-02-22T08:49:17;28.80;;;15.30;;
62947;SDS011;51940;52.126;-0.994;2023-02-22T08:51:42;31.70;;;16.40;;
62947;SDS011;51940;52.126;-0.994;2023-02-22T08:54:07;29.30;;;15.80;;
62947;SDS011;51940;52.126;-0.994;2023-02-22T08:56:33;27.40;;;15.20;;
62947;SDS011;51940;52.126;-0.994;2023-02-22T08:58:58;27.60;;;15.30;;
62947;SDS011;51940;52.126;-0.994;2023-02-22T09:01:24;33.20;;;17.40;;
62947;SDS011;51940;52.126;-0.994;2023-02-22T09:03:50;34.70;;;16.40;;
62947;SDS011;51940;52.126;-0.994;2023-02-22T09:06:18;31.00;;;16.70;;
62947;SDS011;51940;52.126;-0.994;2023-02-22T09:08:44;26.90;;;14.80;;
62947;SDS011;51940;52.126;-0.994;2023-02-22T09:11:09;30.20;;;16.30;;
62947;SDS011;51940;52.126;-0.994;2023-02-22T09:13:35;29.90;;;15.80;;
62947;SDS011;51940;52.126;-0.994;2023-02-22T09:16:00;29.40;;;15.70;;
62947;SDS011;51940;52.126;-0.994;2023-02-22T09:18:26;27.60;;;15.20;;
62947;SDS011;51940;52.126;-0.994;2023-02-22T09:20:52;30.40;;;16.40;;
62947;SDS011;51940;52.126;-0.994;2023-02-22T09:23:18;30.90;;;17.30;;
62947;SDS011;51940;52.126;-0.994;2023-02-22T09:25:45;31.40;;;16.70;;
62947;SDS011;51940;52.126;-0.994;2023-02-22T09:28:11;30.10;;;16.10;;
62947;SDS011;51940;52.126;-0.994;2023-02-22T09:30:38;30.70;;;15.90;;
62947;SDS011;51940;52.126;-0.994;2023-02-22T09:33:14;31.60;;;16.30;;
62947;SDS011;51940;52.126;-0.994;2023-02-22T09:35:42;30.90;;;16.10;;
62947;SDS011;51940;52.126;-0.994;2023-02-22T09:38:18;28.90;;;14.90;;
62947;SDS011;51940;52.126;-0.994;2023-02-22T09:41:24;30.00;;;15.40;;
62947;SDS011;51940;52.126;-0.994;2023-02-22T09:46:40;30.80;;;16.80;;
62947;SDS011;51940;52.126;-0.994;2023-02-22T09:52:18;28.50;;;15.10;;
62947;SDS011;51940;52.126;-0.994;2023-02-22T09:54:50;32.20;;;15.30;;
62947;SDS011;51940;52.126;-0.994;2023-02-22T09:57:38;32.40;;;16.50;;
62947;SDS011;51940;52.126;-0.994;2023-02-22T10:00:16;29.80;;;16.50;;
62947;SDS011;51940;52.126;-0.994;2023-02-22T10:05:39;30.20;;;16.10;;
62947;SDS011;51940;52.126;-0.994;2023-02-22T10:08:14;30.50;;;15.60;;
62947;SDS011;51940;52.126;-0.994;2023-02-22T10:10:43;32.20;;;16.30;;
62947;SDS011;51940;52.126;-0.994;2023-02-22T10:16:01;27.20;;;14.60;;
62947;SDS011;51940;52.126;-0.994;2023-02-22T10:22:00;28.70;;;14.90;;
62947;SDS011;51940;52.126;-0.994;2023-02-22T10:27:38;32.10;;;14.90;;
62947;SDS011;51940;52.126;-0.994;2023-02-22T10:30:19;28.80;;;13.90;;
62947;SDS011;51940;52.126;-0.994;2023-02-22T10:32:47;27.80;;;14.00;;
62947;SDS011;51940;52.126;-0.994;2023-02-22T10:35:27;29.90;;;13.80;;
62947;SDS011;51940;52.126;-0.994;2023-02-22T10:38:18;27.30;;;14.40;;
62947;SDS011;51940;52.126;-0.994;2023-02-22T10:40:48;27.80;;;14.10;;
62947;SDS011;51940;52.126;-0.994;2023-02-22T10:43:20;28.50;;;14.30;;
62947;SDS011;51940;52.126;-0.994;2023-02-22T10:45:47;27.30;;;14.40;;
62947;SDS011;51940;52.126;-0.994;2023-02-22T10:48:17;30.30;;;14.00;;
62947;SDS011;51940;52.126;-0.994;2023-02-22T10:50:45;27.40;;;13.60;;
62947;SDS011;51940;52.126;-0.994;2023-02-22T10:53:12;25.40;;;13.40;;
62947;SDS011;51940;52.126;-0.994;2023-02-22T10:58:52;25.80;;;13.30;;
62947;SDS011;51940;52.126;-0.994;2023-02-22T11:04:00;23.50;;;12.70;;
62947;SDS011;51940;52.126;-0.994;2023-02-22T11:06:35;25.80;;;12.90;;
62947;SDS011;51940;52.126;-0.994;2023-02-22T11:09:12;23.00;;;12.70;;
62947;SDS011;51940;52.126;-0.994;2023-02-22T11:11:39;23.10;;;12.10;;
62947;SDS011;51940;52.126;-0.994;2023-02-22T11:14:06;23.00;;;12.30;;
62947;SDS011;51940;52.126;-0.994;2023-02-22T11:16:51;20.30;;;11.70;;
62947;SDS011;51940;52.126;-0.994;2023-02-22T11:21:48;18.60;;;11.00;;
62947;SDS011;51940;52.126;-0.994;2023-02-22T11:24:17;21.60;;;10.80;;
62947;SDS011;51940;52.126;-0.994;2023-02-22T11:31:52;18.90;;;11.10;;
62947;SDS011;51940;52.126;-0.994;2023-02-22T11:34:27;18.00;;;10.20;;
62947;SDS011;51940;52.126;-0.994;2023-02-22T11:37:14;20.20;;;10.90;;
62947;SDS011;51940;52.126;-0.994;2023-02-22T11:39:39;17.80;;;9.50;;
62947;SDS011;51940;52.126;-0.994;2023-02-22T11:42:26;20.70;;;9.90;;
62947;SDS011;51940;52.126;-0.994;2023-02-22T11:47:57;16.00;;;9.60;;
62947;SDS011;51940;52.126;-0.994;2023-02-22T12:18:32;9.30;;;7.10;;
62947;SDS011;51940;52.126;-0.994;2023-02-22T12:21:08;9.60;;;6.50;;
62947;SDS011;51940;52.126;-0.994;2023-02-22T12:28:46;9.60;;;6.60;;
62947;SDS011;51940;52.126;-0.994;2023-02-22T12:31:40;8.60;;;7.40;;
62947;SDS011;51940;52.126;-0.994;2023-02-22T12:34:27;9.90;;;6.70;;
62947;SDS011;51940;52.126;-0.994;2023-02-22T12:37:03;9.30;;;6.70;;
62947;SDS011;51940;52.126;-0.994;2023-02-22T12:42:20;7.20;;;6.30;;
62947;SDS011;51940;52.126;-0.994;2023-02-22T12:44:54;7.50;;;5.90;;
62947;SDS011;51940;52.126;-0.994;2023-02-22T12:47:30;8.20;;;6.00;;
62947;SDS011;51940;52.126;-0.994;2023-02-22T12:50:21;6.90;;;6.10;;
62947;SDS011;51940;52.126;-0.994;2023-02-22T12:52:55;6.90;;;6.20;;
62947;SDS011;51940;52.126;-0.994;2023-02-22T12:55:38;6.70;;;6.10;;
62947;SDS011;51940;52.126;-0.994;2023-02-22T13:00:50;9.70;;;6.70;;
62947;SDS011;51940;52.126;-0.994;2023-02-22T13:08:55;9.30;;;6.70;;
62947;SDS011;51940;52.126;-0.994;2023-02-22T13:16:51;7.10;;;6.30;;
62947;SDS011;51940;52.126;-0.994;2023-02-22T13:19:28;7.70;;;6.30;;
62947;SDS011;51940;52.126;-0.994;2023-02-22T13:30:18;7.60;;;5.90;;
62947;SDS011;51940;52.126;-0.994;2023-02-22T13:39:11;4.40;;;3.90;;
62947;SDS011;51940;52.126;-0.994;2023-02-22T13:44:57;4.20;;;3.70;;
62947;SDS011;51940;52.126;-0.994;2023-02-22T13:53:09;5.10;;;4.30;;
62947;SDS011;51940;52.126;-0.994;2023-02-22T13:55:40;5.20;;;4.70;;
62947;SDS011;51940;52.126;-0.994;2023-02-22T13:58:08;4.80;;;4.30;;
62947;SDS011;51940;52.126;-0.994;2023-02-22T14:08:04;3.70;;;3.20;;
62947;SDS011;51940;52.126;-0.994;2023-02-22T14:10:34;3.30;;;3.00;;
62947;SDS011;51940;52.126;-0.994;2023-02-22T14:13:08;3.50;;;3.10;;
62947;SDS011;51940;52.126;-0.994;2023-02-22T14:15:34;4.80;;;3.20;;
62947;SDS011;51940;52.126;-0.994;2023-02-22T14:18:01;4.20;;;2.80;;
62947;SDS011;51940;52.126;-0.994;2023-02-22T14:20:31;3.70;;;2.90;;
62947;SDS011;51940;52.126;-0.994;2023-02-22T14:25:47;2.10;;;1.90;;
62947;SDS011;51940;52.126;-0.994;2023-02-22T14:36:19;1.60;;;1.40;;
62947;SDS011;51940;52.126;-0.994;2023-02-22T14:38:53;3.10;;;1.90;;
62947;SDS011;51940;52.126;-0.994;2023-02-22T14:41:27;2.00;;;1.70;;
62947;SDS011;51940;52.126;-0.994;2023-02-22T14:43:55;2.10;;;1.90;;
62947;SDS011;51940;52.126;-0.994;2023-02-22T14:46:23;1.80;;;1.70;;
62947;SDS011;51940;52.126;-0.994;2023-02-22T14:48:56;2.00;;;1.70;;
62947;SDS011;51940;52.126;-0.994;2023-02-22T14:51:26;2.30;;;1.70;;
62947;SDS011;51940;52.126;-0.994;2023-02-22T14:53:57;1.60;;;1.50;;
62947;SDS011;51940;52.126;-0.994;2023-02-22T14:56:36;2.00;;;1.60;;
62947;SDS011;51940;52.126;-0.994;2023-02-22T14:59:18;1.50;;;1.40;;
62947;SDS011;51940;52.126;-0.994;2023-02-22T15:01:48;1.70;;;1.30;;
62947;SDS011;51940;52.126;-0.994;2023-02-22T15:04:18;1.70;;;1.30;;
62947;SDS011;51940;52.126;-0.994;2023-02-22T15:06:52;1.40;;;1.10;;
62947;SDS011;51940;52.126;-0.994;2023-02-22T15:09:21;1.60;;;1.30;;
62947;SDS011;51940;52.126;-0.994;2023-02-22T15:14:27;1.20;;;1.10;;
62947;SDS011;51940;52.126;-0.994;2023-02-22T15:16:56;1.20;;;1.10;;
62947;SDS011;51940;52.126;-0.994;2023-02-22T15:19:28;1.30;;;1.20;;
62947;SDS011;51940;52.126;-0.994;2023-02-22T15:21:56;1.30;;;1.20;;
62947;SDS011;51940;52.126;-0.994;2023-02-22T15:24:27;2.80;;;1.20;;
62947;SDS011;51940;52.126;-0.994;2023-02-22T15:27:02;1.20;;;1.10;;
62947;SDS011;51940;52.126;-0.994;2023-02-22T15:29:36;0.90;;;0.90;;
62947;SDS011;51940;52.126;-0.994;2023-02-22T15:34:53;2.60;;;1.00;;
62947;SDS011;51940;52.126;-0.994;2023-02-22T15:37:25;1.30;;;1.00;;
62947;SDS011;51940;52.126;-0.994;2023-02-22T15:40:06;1.10;;;1.10;;
62947;SDS011;51940;52.126;-0.994;2023-02-22T15:42:56;2.30;;;1.20;;
62947;SDS011;51940;52.126;-0.994;2023-02-22T15:45:22;1.50;;;1.00;;
62947;SDS011;51940;52.126;-0.994;2023-02-22T15:47:52;1.30;;;1.00;;
62947;SDS011;51940;52.126;-0.994;2023-02-22T15:50:23;1.30;;;1.10;;
62947;SDS011;51940;52.126;-0.994;2023-02-22T15:55:27;1.30;;;1.20;;
62947;SDS011;51940;52.126;-0.994;2023-02-22T15:57:57;1.20;;;1.10;;
62947;SDS011;51940;52.126;-0.994;2023-02-22T16:00:44;2.70;;;1.00;;
62947;SDS011;51940;52.126;-0.994;2023-02-22T16:03:15;3.30;;;1.20;;
62947;SDS011;51940;52.126;-0.994;2023-02-22T16:05:50;1.80;;;1.30;;
62947;SDS011;51940;52.126;-0.994;2023-02-22T16:08:23;1.20;;;1.10;;
62947;SDS011;51940;52.126;-0.994;2023-02-22T16:11:20;2.50;;;1.60;;
62947;SDS011;51940;52.126;-0.994;2023-02-22T16:13:55;3.20;;;2.80;;
62947;SDS011;51940;52.126;-0.994;2023-02-22T16:16:48;4.00;;;3.00;;
62947;SDS011;51940;52.126;-0.994;2023-02-22T16:22:00;2.60;;;2.40;;
62947;SDS011;51940;52.126;-0.994;2023-02-22T16:24:32;3.20;;;1.80;;
62947;SDS011;51940;52.126;-0.994;2023-02-22T16:27:04;2.20;;;2.00;;
62947;SDS011;51940;52.126;-0.994;2023-02-22T16:29:40;2.50;;;2.00;;
62947;SDS011;51940;52.126;-0.994;2023-02-22T16:32:06;6.30;;;2.80;;
62947;SDS011;51940;52.126;-0.994;2023-02-22T16:34:32;4.80;;;4.20;;
62947;SDS011;51940;52.126;-0.994;2023-02-22T16:36:57;4.20;;;3.80;;
62947;SDS011;51940;52.126;-0.994;2023-02-22T16:39:24;5.70;;;4.90;;
62947;SDS011;51940;52.126;-0.994;2023-02-22T16:41:51;6.00;;;5.10;;
62947;SDS011;51940;52.126;-0.994;2023-02-22T16:44:21;4.50;;;4.10;;
62947;SDS011;51940;52.126;-0.994;2023-02-22T16:46:51;4.70;;;3.30;;
62947;SDS011;51940;52.126;-0.994;2023-02-22T16:49:18;5.20;;;3.40;;
62947;SDS011;51940;52.126;-0.994;2023-02-22T16:54:34;3.90;;;3.50;;
62947;SDS011;51940;52.126;-0.994;2023-02-22T16:57:05;4.50;;;3.10;;
62947;SDS011;51940;52.126;-0.994;2023-02-22T16:59:32;6.30;;;3.40;;
62947;SDS011;51940;52.126;-0.994;2023-02-22T17:02:02;3.70;;;3.40;;
62947;SDS011;51940;52.126;-0.994;2023-02-22T17:04:31;3.60;;;3.30;;
62947;SDS011;51940;52.126;-0.994;2023-02-22T17:06:57;5.20;;;3.40;;
62947;SDS011;51940;52.126;-0.994;2023-02-22T17:09:23;6.70;;;3.70;;
62947;SDS011;51940;52.126;-0.994;2023-02-22T17:11:49;4.80;;;3.60;;
62947;SDS011;51940;52.126;-0.994;2023-02-22T17:14:17;9.60;;;4.10;;
62947;SDS011;51940;52.126;-0.994;2023-02-22T17:16:50;5.20;;;4.50;;
62947;SDS011;51940;52.126;-0.994;2023-02-22T17:19:18;4.90;;;3.40;;
62947;SDS011;51940;52.126;-0.994;2023-02-22T17:21:46;4.60;;;3.30;;
62947;SDS011;51940;52.126;-0.994;2023-02-22T17:24:13;4.40;;;3.20;;
62947;SDS011;51940;52.126;-0.994;2023-02-22T17:26:42;5.40;;;3.50;;
62947;SDS011;51940;52.126;-0.994;2023-02-22T17:29:07;6.00;;;4.00;;
62947;SDS011;51940;52.126;-0.994;2023-02-22T17:31:33;4.30;;;3.30;;
62947;SDS011;51940;52.126;-0.994;2023-02-22T17:34:00;5.40;;;3.60;;